首页
METAR-TAF:

METAR-TAF

机场 :

马丁斯堡, 西維吉尼亞州, 美国

纬度: 39-24-07N, 经度: 077-59-04W, 海拔: 170米

当前天气观测

该预报发布于56分钟前的15:53 UTC
风速8节,风向西转西南
温度 29°C
湿度 48%
气压 1019 hPa
能見度: 16.1公里
天空无云

METAR: KMRB 261553Z 24008KT 10SM CLR 29/17 A3009 RMK AO2 SLP184 T02890167

时间: 12:49 (16:49 UTC)

预报

该预报发布于5小时和29分钟前的11:20 UTC
预报有效从26日的 12点(UTC)到 27日的 12点(UTC)
风速3节,风向多变
能見度: 10公里
少量云层高于25000英尺
从 26日的 1400点(UTC)
风速7节,风向西转西北
能見度: 10公里
少量云层高于25000英尺
从 27日的 0300点(UTC)
风速节,风向
能見度: 10公里
少量云层高于25000英尺

TAF: KMRB 261120Z 2612/2712 VRB03KT P6SM FEW250 FM261400 29007KT P6SM FEW250 FM270300 00000KT P6SM FEW250

超过4000个机场的气象观测和天气预报(METAR&TAF报告)。

可查询的气象台以黄色和红色小点在地图上表示。

将鼠标移到小点上方,可查看气象台名称。

然后点击查看天气观测和预报。

如需切换地图:点击带黑十字的绿色按钮放大地图;点击带横线的绿色按钮缩小地图;或者点击绿色箭头查看邻近地区的地图。


METAR-TAF: